createdAt,value
2018-12-23T00:01:49.112Z,4.07
2018-12-23T00:04:17.972Z,3.90
2018-12-23T00:06:45.425Z,4.17
2018-12-23T00:09:12.911Z,4.13
2018-12-23T00:11:40.432Z,3.80
2018-12-23T00:14:07.901Z,3.70
2018-12-23T00:16:35.393Z,3.90
2018-12-23T00:19:02.848Z,4.13
2018-12-23T00:21:31.373Z,3.97
2018-12-23T00:23:58.829Z,3.77
2018-12-23T00:26:26.309Z,3.97
2018-12-23T00:28:53.904Z,3.83
2018-12-23T00:31:21.411Z,3.63
2018-12-23T00:33:48.867Z,3.00
2018-12-23T00:36:16.375Z,3.57
2018-12-23T00:38:43.983Z,3.07
2018-12-23T00:41:11.468Z,3.20
2018-12-23T00:43:38.934Z,5.40
2018-12-23T00:46:06.400Z,5.40
2018-12-23T00:48:33.950Z,3.40
2018-12-23T00:51:01.541Z,2.73
2018-12-23T00:53:29.041Z,2.87
2018-12-23T00:55:56.484Z,2.90
2018-12-23T00:58:23.956Z,2.93
2018-12-23T01:00:51.402Z,2.73
2018-12-23T01:03:18.875Z,2.77
2018-12-23T01:05:46.335Z,2.80
2018-12-23T01:08:13.849Z,2.70
2018-12-23T01:10:41.299Z,2.70
2018-12-23T01:13:08.874Z,2.90
2018-12-23T01:15:36.377Z,2.80
2018-12-23T01:18:03.898Z,2.80
2018-12-23T01:20:31.576Z,2.50
2018-12-23T01:22:59.118Z,2.80
2018-12-23T01:25:26.586Z,2.60
2018-12-23T01:27:54.016Z,3.20
2018-12-23T01:30:21.712Z,2.70
2018-12-23T01:32:49.239Z,2.90
2018-12-23T01:35:16.673Z,2.90
2018-12-23T01:37:44.166Z,2.87
2018-12-23T01:40:11.643Z,3.17
2018-12-23T01:42:39.105Z,3.03
2018-12-23T01:45:06.636Z,3.53
2018-12-23T01:47:34.432Z,2.67
2018-12-23T01:50:01.992Z,3.07
2018-12-23T01:52:29.448Z,2.83
2018-12-23T01:54:57.077Z,2.73
2018-12-23T01:57:24.579Z,2.67
2018-12-23T01:59:52.076Z,2.90
2018-12-23T02:02:19.600Z,3.10
2018-12-23T02:04:47.133Z,2.60
2018-12-23T02:07:14.607Z,2.60
2018-12-23T02:09:42.178Z,2.80
2018-12-23T02:12:09.687Z,2.67
2018-12-23T02:14:37.356Z,2.90
2018-12-23T02:17:04.892Z,3.07
2018-12-23T02:19:33.271Z,2.50
2018-12-23T02:22:00.871Z,2.90
2018-12-23T02:24:28.560Z,2.90
2018-12-23T02:26:56.000Z,2.80
2018-12-23T02:29:23.459Z,2.70
2018-12-23T02:31:51.032Z,3.00
2018-12-23T02:34:18.612Z,2.93
2018-12-23T02:36:46.221Z,2.80
2018-12-23T02:39:14.143Z,2.80
2018-12-23T02:41:43.473Z,2.90
2018-12-23T02:44:10.952Z,3.77
2018-12-23T02:46:38.476Z,2.97
2018-12-23T02:49:05.947Z,2.90
2018-12-23T02:51:33.461Z,3.30
2018-12-23T02:54:01.020Z,3.37
2018-12-23T02:56:28.438Z,3.67
2018-12-23T02:58:55.995Z,3.40
2018-12-23T03:01:23.561Z,3.67
2018-12-23T03:03:51.117Z,3.60
2018-12-23T03:06:18.678Z,3.90
2018-12-23T03:08:46.330Z,3.90
2018-12-23T03:11:13.812Z,3.83
2018-12-23T03:13:41.321Z,4.20
2018-12-23T03:16:08.846Z,4.53
2018-12-23T03:18:36.348Z,3.83
2018-12-23T03:21:03.843Z,4.50
2018-12-23T03:23:31.284Z,4.43
2018-12-23T03:25:58.734Z,5.03
2018-12-23T03:28:26.291Z,4.80
2018-12-23T03:30:53.870Z,4.53
2018-12-23T03:33:21.356Z,5.60
2018-12-23T03:35:48.936Z,5.03
2018-12-23T03:38:16.605Z,4.90
2018-12-23T03:40:44.128Z,5.10
2018-12-23T03:43:11.659Z,4.90
2018-12-23T03:45:39.384Z,5.33
2018-12-23T03:48:07.018Z,5.00
2018-12-23T03:50:34.495Z,5.57
2018-12-23T03:53:02.145Z,6.03
2018-12-23T03:55:29.736Z,6.20
2018-12-23T03:57:57.181Z,5.60
2018-12-23T04:00:24.709Z,5.70
2018-12-23T04:02:52.217Z,5.80
2018-12-23T04:05:19.800Z,5.97
2018-12-23T04:07:47.267Z,6.43
2018-12-23T04:10:15.360Z,5.97
2018-12-23T04:12:42.862Z,6.30
2018-12-23T04:15:10.403Z,6.60
2018-12-23T04:17:37.978Z,6.50
2018-12-23T04:20:05.484Z,6.80
2018-12-23T04:22:33.683Z,6.00
2018-12-23T04:25:01.269Z,5.93
2018-12-23T04:27:28.770Z,6.70
2018-12-23T04:29:56.298Z,6.33
2018-12-23T04:32:24.773Z,6.37
2018-12-23T04:34:52.299Z,6.90
2018-12-23T04:37:19.750Z,5.73
2018-12-23T04:39:47.208Z,6.80
2018-12-23T04:42:14.743Z,6.43
2018-12-23T04:44:42.215Z,6.53
2018-12-23T04:47:09.695Z,5.80
2018-12-23T04:49:37.227Z,6.00
2018-12-23T04:52:04.732Z,6.67
2018-12-23T04:54:32.272Z,5.90
2018-12-23T04:56:59.770Z,5.40
2018-12-23T04:59:27.351Z,5.23
2018-12-23T05:01:54.867Z,4.73
2018-12-23T05:04:22.396Z,4.67
2018-12-23T05:06:49.861Z,4.70
2018-12-23T05:09:17.324Z,4.50
2018-12-23T05:11:44.838Z,4.97
2018-12-23T05:14:12.272Z,4.70
2018-12-23T05:16:39.720Z,5.30
2018-12-23T05:19:07.178Z,5.47
2018-12-23T05:21:34.645Z,5.47
2018-12-23T05:24:02.159Z,5.20
2018-12-23T05:26:29.692Z,5.50
2018-12-23T05:28:57.153Z,5.97
2018-12-23T05:31:24.623Z,5.90
2018-12-23T05:33:52.104Z,6.53
2018-12-23T05:36:19.710Z,6.80
2018-12-23T05:38:47.192Z,6.00
2018-12-23T05:41:14.644Z,6.53
2018-12-23T05:43:42.088Z,6.43
2018-12-23T05:46:09.598Z,5.97
2018-12-23T05:48:37.089Z,5.70
2018-12-23T05:51:04.673Z,5.60
2018-12-23T05:53:32.144Z,5.57
2018-12-23T05:55:59.138Z,6.40
2018-12-23T05:58:26.631Z,6.80
2018-12-23T06:00:54.807Z,6.53
2018-12-23T06:03:22.340Z,5.57
2018-12-23T06:05:49.872Z,6.35
2018-12-23T06:08:17.453Z,6.07
2018-12-23T06:10:44.913Z,5.87
2018-12-23T06:13:12.396Z,5.27
2018-12-23T06:15:40.038Z,5.17
2018-12-23T06:18:07.504Z,3.97
2018-12-23T06:20:35.016Z,4.07
2018-12-23T06:23:02.564Z,3.97
2018-12-23T06:25:30.008Z,3.80
2018-12-23T06:27:57.459Z,3.90
2018-12-23T06:30:25.251Z,3.27
2018-12-23T06:32:52.752Z,3.73
2018-12-23T06:35:20.326Z,3.47
2018-12-23T06:37:47.852Z,3.43
2018-12-23T06:40:15.300Z,3.50
2018-12-23T06:42:42.783Z,3.43
2018-12-23T06:45:10.232Z,3.50
2018-12-23T06:47:37.728Z,4.43
2018-12-23T06:50:05.427Z,4.30
2018-12-23T06:52:32.938Z,4.60
2018-12-23T06:55:00.377Z,4.30
2018-12-23T06:57:27.833Z,4.73
2018-12-23T06:59:55.259Z,5.77
2018-12-23T07:02:22.893Z,5.63
2018-12-23T07:04:50.399Z,6.03
2018-12-23T07:07:18.790Z,6.87
2018-12-23T07:09:46.607Z,6.87
2018-12-23T07:12:14.097Z,6.10
2018-12-23T07:14:41.631Z,6.43
2018-12-23T07:17:09.143Z,7.47
2018-12-23T07:19:36.582Z,7.10
2018-12-23T07:22:04.133Z,6.47
2018-12-23T07:24:31.864Z,7.90
2018-12-23T07:26:59.661Z,7.80
2018-12-23T07:29:27.239Z,8.37
2018-12-23T07:31:55.441Z,8.13
2018-12-23T07:34:22.929Z,8.57
2018-12-23T07:36:50.409Z,8.90
2018-12-23T07:39:17.889Z,8.67
2018-12-23T07:41:45.370Z,8.60
2018-12-23T07:44:12.828Z,8.70
2018-12-23T07:46:40.309Z,9.10
2018-12-23T07:49:07.770Z,9.27
2018-12-23T07:51:35.256Z,8.73
2018-12-23T07:54:02.716Z,8.93
2018-12-23T07:56:30.269Z,9.57
2018-12-23T07:58:57.782Z,9.60
2018-12-23T08:01:26.101Z,9.70
2018-12-23T08:03:53.635Z,9.57
2018-12-23T08:06:21.155Z,10.60
2018-12-23T08:08:48.598Z,10.10
2018-12-23T08:11:16.126Z,10.10
2018-12-23T08:13:43.940Z,11.00
2018-12-23T08:16:11.432Z,10.60
2018-12-23T08:18:38.963Z,10.73
2018-12-23T08:21:06.523Z,10.50
2018-12-23T08:23:33.980Z,10.83
2018-12-23T08:26:01.919Z,10.87
2018-12-23T08:28:29.408Z,10.60
2018-12-23T08:30:56.882Z,10.47
2018-12-23T08:33:24.484Z,11.07
2018-12-23T08:35:52.087Z,11.30
2018-12-23T08:38:19.545Z,10.30
2018-12-23T08:40:47.082Z,10.70
2018-12-23T08:43:14.642Z,11.03
2018-12-23T08:45:42.159Z,11.70
2018-12-23T08:48:09.712Z,11.57
2018-12-23T08:50:37.273Z,11.43
2018-12-23T08:53:04.776Z,11.20
2018-12-23T08:55:33.227Z,11.90
2018-12-23T08:58:00.726Z,11.83
2018-12-23T09:00:28.252Z,11.47
2018-12-23T09:02:55.751Z,11.53
2018-12-23T09:05:23.256Z,11.17
2018-12-23T09:07:53.064Z,11.97
2018-12-23T09:10:20.660Z,12.20
2018-12-23T09:12:48.188Z,11.73
2018-12-23T09:15:15.664Z,11.40
2018-12-23T09:17:43.153Z,11.77
2018-12-23T09:20:10.650Z,11.07
2018-12-23T09:22:38.106Z,12.93
2018-12-23T09:25:05.672Z,13.60
2018-12-23T09:27:33.169Z,14.03
2018-12-23T09:30:00.651Z,12.67
2018-12-23T09:32:28.369Z,13.23
2018-12-23T09:34:55.873Z,13.47
2018-12-23T09:37:23.419Z,13.83
2018-12-23T09:39:50.933Z,13.10
2018-12-23T09:42:18.489Z,13.60
2018-12-23T09:44:46.033Z,12.40
2018-12-23T09:47:13.887Z,12.97
2018-12-23T09:49:41.355Z,12.90
2018-12-23T09:52:08.840Z,13.30
2018-12-23T09:54:36.311Z,13.13
2018-12-23T09:57:03.986Z,13.33
2018-12-23T09:59:31.460Z,13.70
2018-12-23T10:01:59.092Z,13.47
2018-12-23T10:04:26.663Z,12.10
2018-12-23T10:06:54.289Z,13.43
2018-12-23T10:09:22.014Z,13.73
2018-12-23T10:11:49.553Z,13.67
2018-12-23T10:14:17.076Z,15.13
2018-12-23T10:16:44.534Z,13.70
2018-12-23T10:19:12.057Z,15.03
2018-12-23T10:21:39.602Z,13.20
2018-12-23T10:24:07.143Z,12.23
2018-12-23T10:26:34.588Z,12.53
2018-12-23T10:29:02.099Z,13.30
2018-12-23T10:31:29.614Z,12.63
2018-12-23T10:33:57.175Z,12.60
2018-12-23T10:36:24.694Z,12.93
2018-12-23T10:38:52.194Z,12.57
2018-12-23T10:41:19.691Z,12.00
2018-12-23T10:43:47.480Z,12.40
2018-12-23T10:46:14.971Z,12.50
2018-12-23T10:48:42.492Z,12.20
2018-12-23T10:51:09.961Z,11.17
2018-12-23T10:53:37.473Z,11.03
2018-12-23T10:56:04.925Z,11.37
2018-12-23T10:58:32.414Z,10.90
2018-12-23T11:00:59.987Z,10.77
2018-12-23T11:03:27.558Z,11.20
2018-12-23T11:05:55.309Z,11.20
2018-12-23T11:08:26.872Z,10.50
2018-12-23T11:10:52.456Z,11.00
2018-12-23T11:13:19.952Z,11.10
2018-12-23T11:15:47.450Z,11.27
2018-12-23T11:18:14.968Z,10.67
2018-12-23T11:20:42.448Z,10.60
2018-12-23T11:23:09.894Z,9.63
2018-12-23T11:25:37.359Z,11.17
2018-12-23T11:28:04.802Z,10.23
2018-12-23T11:30:32.391Z,10.07
2018-12-23T11:32:59.916Z,10.20
2018-12-23T11:35:27.695Z,10.73
2018-12-23T11:37:55.149Z,10.50
2018-12-23T11:40:22.611Z,10.27
2018-12-23T11:42:50.063Z,11.70
2018-12-23T11:45:17.535Z,9.87
2018-12-23T11:47:45.011Z,9.70
2018-12-23T11:50:12.476Z,9.73
2018-12-23T11:52:39.933Z,9.23
2018-12-23T11:55:07.402Z,9.33
2018-12-23T11:57:34.868Z,8.87
2018-12-23T12:00:02.411Z,9.30
2018-12-23T12:02:29.869Z,9.00
2018-12-23T12:04:57.345Z,9.33
2018-12-23T12:07:24.951Z,8.37
2018-12-23T12:09:52.446Z,9.30
2018-12-23T12:12:19.919Z,8.23
2018-12-23T12:14:47.435Z,8.47
2018-12-23T12:17:14.916Z,9.47
2018-12-23T12:19:42.396Z,8.70
2018-12-23T12:22:09.876Z,9.07
2018-12-23T12:24:37.351Z,9.60
2018-12-23T12:27:04.822Z,9.07
2018-12-23T12:29:32.344Z,10.03
2018-12-23T12:31:59.888Z,9.50
2018-12-23T12:34:27.416Z,8.60
2018-12-23T12:36:54.923Z,8.47
2018-12-23T12:39:22.411Z,8.30
2018-12-23T12:41:49.911Z,8.40
2018-12-23T12:44:17.396Z,9.30
2018-12-23T12:46:44.929Z,9.93
2018-12-23T12:49:12.562Z,9.80
2018-12-23T12:51:40.310Z,9.17
2018-12-23T12:54:07.870Z,9.77
2018-12-23T12:56:35.413Z,9.03
2018-12-23T12:59:02.898Z,9.37
2018-12-23T13:01:30.376Z,11.43
2018-12-23T13:03:59.015Z,11.50
2018-12-23T13:06:26.729Z,10.70
2018-12-23T13:09:00.446Z,11.73
2018-12-23T13:11:23.732Z,11.67
2018-12-23T13:13:51.361Z,11.43
2018-12-23T13:16:18.883Z,12.70
2018-12-23T13:18:46.323Z,12.33
2018-12-23T13:21:13.775Z,11.80
2018-12-23T13:23:41.210Z,13.77
2018-12-23T13:26:08.748Z,12.10
2018-12-23T13:28:36.315Z,12.07
2018-12-23T13:31:03.838Z,13.13
2018-12-23T13:33:31.336Z,13.13
2018-12-23T13:35:59.421Z,13.77
2018-12-23T13:38:27.999Z,13.43
2018-12-23T13:47:29.558Z,12.40
2018-12-23T13:50:28.134Z,13.30
2018-12-23T13:53:17.820Z,12.57
2018-12-23T13:56:13.423Z,13.23
2018-12-23T13:58:45.113Z,13.77
2018-12-23T14:01:31.567Z,14.27
2018-12-23T14:04:05.762Z,12.97
2018-12-23T14:06:37.385Z,13.23
2018-12-23T14:09:17.258Z,14.43
2018-12-23T14:11:45.111Z,13.13
2018-12-23T14:14:13.916Z,12.87
2018-12-23T14:16:42.477Z,13.73
2018-12-23T14:19:11.114Z,12.50
2018-12-23T14:21:39.715Z,13.17
2018-12-23T14:24:08.333Z,13.90
2018-12-23T14:26:37.083Z,12.93
2018-12-23T14:29:05.691Z,13.53
2018-12-23T14:31:34.333Z,13.40
2018-12-23T14:34:03.089Z,13.27
2018-12-23T14:36:31.730Z,12.07
2018-12-23T14:39:04.401Z,12.90
2018-12-23T14:41:33.349Z,12.97
2018-12-23T14:44:01.908Z,12.27
2018-12-23T14:46:30.591Z,11.80
2018-12-23T14:48:59.171Z,12.10
2018-12-23T14:51:27.724Z,11.97
2018-12-23T14:53:56.418Z,12.10
2018-12-23T14:56:24.963Z,11.73
2018-12-23T14:58:53.525Z,11.50
2018-12-23T15:01:22.077Z,12.83
2018-12-23T15:03:52.144Z,11.60
2018-12-23T15:06:20.800Z,10.97
2018-12-23T15:08:49.394Z,12.20
2018-12-23T15:11:18.183Z,11.60
2018-12-23T15:13:46.801Z,12.53
2018-12-23T15:16:15.470Z,17.80
2018-12-23T15:18:44.120Z,12.90
2018-12-23T15:21:12.666Z,11.27
2018-12-23T15:23:41.334Z,11.97
2018-12-23T15:26:11.411Z,10.40
2018-12-23T15:28:40.270Z,10.67
2018-12-23T15:31:10.031Z,10.30
2018-12-23T15:33:38.648Z,11.13
2018-12-23T15:36:07.205Z,10.67
2018-12-23T15:38:35.807Z,9.87
2018-12-23T15:41:04.367Z,9.53
2018-12-23T15:43:32.951Z,9.37
2018-12-23T15:46:01.607Z,9.57
2018-12-23T15:48:30.445Z,9.77
2018-12-23T15:51:07.964Z,9.67
2018-12-23T15:53:36.566Z,10.10
2018-12-23T15:56:05.428Z,10.33
2018-12-23T15:58:34.025Z,9.73
2018-12-23T16:01:02.757Z,10.80
2018-12-23T16:03:36.067Z,10.10
2018-12-23T16:06:04.751Z,10.67
2018-12-23T16:08:33.354Z,11.07
2018-12-23T16:11:02.198Z,10.93
2018-12-23T16:13:30.742Z,10.80
2018-12-23T16:15:59.585Z,10.20
2018-12-23T16:18:28.230Z,10.17
2018-12-23T16:20:56.875Z,10.73
2018-12-23T16:23:25.434Z,11.53
2018-12-23T16:25:54.169Z,10.07
2018-12-23T16:28:22.708Z,10.27
2018-12-23T16:30:51.301Z,10.83
2018-12-23T16:33:19.933Z,11.07
2018-12-23T16:35:50.145Z,10.73
2018-12-23T16:38:18.659Z,10.90
2018-12-23T16:40:47.181Z,11.67
2018-12-23T16:43:15.820Z,11.10
2018-12-23T16:45:44.343Z,10.83
2018-12-23T16:48:14.569Z,12.40
2018-12-23T16:50:43.112Z,10.97
2018-12-23T16:53:11.811Z,10.17
2018-12-23T16:55:40.365Z,9.73
2018-12-23T16:58:08.974Z,9.83
2018-12-23T17:00:37.583Z,9.53
2018-12-23T17:03:06.160Z,9.80
2018-12-23T17:05:34.889Z,9.17
2018-12-23T17:08:04.575Z,8.90
2018-12-23T17:10:33.114Z,10.80
2018-12-23T17:13:01.686Z,11.37
2018-12-23T17:15:30.271Z,9.43
2018-12-23T17:17:58.857Z,9.00
2018-12-23T17:20:27.487Z,8.70
2018-12-23T17:22:56.012Z,8.87
2018-12-23T17:25:24.608Z,8.73
2018-12-23T17:27:53.164Z,9.20
2018-12-23T17:30:21.763Z,8.73
2018-12-23T17:32:50.356Z,10.07
2018-12-23T17:35:19.061Z,9.83
2018-12-23T17:37:47.733Z,10.43
2018-12-23T17:40:18.812Z,12.93
2018-12-23T17:42:47.479Z,11.00
2018-12-23T17:45:16.065Z,9.90
2018-12-23T17:47:44.701Z,10.47
2018-12-23T17:50:13.311Z,10.47
2018-12-23T17:52:41.907Z,10.57
2018-12-23T17:55:10.553Z,10.33
2018-12-23T17:57:40.543Z,10.57
2018-12-23T18:00:11.822Z,10.63
2018-12-23T18:02:39.923Z,10.70
2018-12-23T18:05:08.557Z,11.23
2018-12-23T18:07:37.126Z,11.07
2018-12-23T18:10:06.669Z,9.97
2018-12-23T18:12:35.248Z,9.47
2018-12-23T18:15:04.253Z,10.30
2018-12-23T18:17:32.770Z,9.67
2018-12-23T18:20:01.358Z,10.13
2018-12-23T18:22:29.962Z,10.87
2018-12-23T18:24:58.545Z,10.17
2018-12-23T18:27:27.085Z,9.77
2018-12-23T18:29:55.687Z,9.10
2018-12-23T18:32:24.254Z,9.70
2018-12-23T18:34:52.935Z,9.87
2018-12-23T18:37:21.582Z,10.70
2018-12-23T18:39:50.168Z,10.80
2018-12-23T18:42:18.926Z,9.07
2018-12-23T18:44:47.477Z,10.87
2018-12-23T18:47:16.686Z,10.57
2018-12-23T18:49:45.241Z,9.67
2018-12-23T18:52:14.595Z,9.93
2018-12-23T18:54:43.370Z,9.70
2018-12-23T18:57:12.017Z,9.13
2018-12-23T18:59:40.941Z,9.00
2018-12-23T19:02:09.493Z,8.23
2018-12-23T19:04:38.216Z,8.33
2018-12-23T19:07:06.852Z,7.73
2018-12-23T19:09:35.944Z,7.90
2018-12-23T19:12:10.445Z,7.60
2018-12-23T19:14:42.097Z,6.87
2018-12-23T19:17:27.869Z,6.97
2018-12-23T19:20:15.976Z,6.33
2018-12-23T19:23:06.010Z,6.20
2018-12-23T19:25:51.825Z,6.00
2018-12-23T19:28:38.441Z,6.77
2018-12-23T19:31:25.174Z,6.60
2018-12-23T19:34:02.473Z,6.10
2018-12-23T19:36:42.644Z,6.73
2018-12-23T19:39:32.388Z,6.30
2018-12-23T19:42:37.716Z,6.80
2018-12-23T19:45:42.764Z,6.73
2018-12-23T19:48:26.226Z,6.73
2018-12-23T19:51:16.141Z,6.47
2018-12-23T19:53:56.733Z,7.10
2018-12-23T19:56:49.724Z,7.40
2018-12-23T19:59:27.386Z,8.10
2018-12-23T20:02:17.229Z,14.63
2018-12-23T20:04:51.440Z,11.17
2018-12-23T20:07:34.493Z,8.97
2018-12-23T20:10:22.792Z,9.63
2018-12-23T20:13:11.362Z,10.73
2018-12-23T20:16:16.455Z,9.17
2018-12-23T20:18:48.138Z,9.10
2018-12-23T20:21:28.544Z,8.80
2018-12-23T20:24:05.936Z,9.20
2018-12-23T20:26:52.650Z,9.57
2018-12-23T20:29:45.512Z,8.87
2018-12-23T20:32:32.026Z,7.53
2018-12-23T20:35:15.889Z,7.23
2018-12-23T20:37:53.525Z,7.10
2018-12-23T20:40:40.093Z,7.03
2018-12-23T20:43:29.686Z,7.27
2018-12-23T20:46:25.524Z,6.40
2018-12-23T20:49:14.119Z,5.93
2018-12-23T20:51:54.834Z,4.77
2018-12-23T20:54:54.595Z,4.30
2018-12-23T20:57:34.350Z,4.67
2018-12-23T21:00:30.481Z,4.80
2018-12-23T21:03:33.883Z,4.37
2018-12-23T21:06:29.360Z,6.03
2018-12-23T21:09:34.230Z,5.43
2018-12-23T21:12:28.328Z,5.93
2018-12-23T21:15:15.121Z,5.93
2018-12-23T21:18:17.247Z,5.57
2018-12-23T21:21:16.043Z,5.27
2018-12-23T21:23:56.566Z,4.57
2018-12-23T21:26:49.369Z,4.93
2018-12-23T21:29:38.928Z,7.47
2018-12-23T21:32:16.310Z,4.80
2018-12-23T21:35:05.647Z,4.37
2018-12-23T21:37:37.329Z,3.60
2018-12-23T21:40:29.675Z,3.63
2018-12-23T21:43:03.991Z,3.70
2018-12-23T21:45:47.012Z,3.80
2018-12-23T21:48:24.217Z,3.83
2018-12-23T21:51:30.481Z,4.00
2018-12-23T21:54:16.944Z,4.30
2018-12-23T21:57:22.163Z,4.60
2018-12-23T22:00:02.523Z,5.27
2018-12-23T22:02:52.240Z,4.93
2018-12-23T22:05:29.979Z,4.67
2018-12-23T22:08:22.686Z,4.83
2018-12-23T22:11:15.873Z,4.80
2018-12-23T22:13:44.445Z,4.20
2018-12-23T22:16:13.024Z,4.20
2018-12-23T22:18:41.636Z,4.50
2018-12-23T22:21:10.198Z,4.43
2018-12-23T22:23:38.738Z,4.90
2018-12-23T22:26:07.284Z,4.80
2018-12-23T22:28:35.869Z,5.63
2018-12-23T22:31:04.697Z,6.00
2018-12-23T22:33:34.948Z,5.80
2018-12-23T22:36:03.695Z,5.53
2018-12-23T22:38:32.259Z,6.33
2018-12-23T22:41:00.885Z,5.67
2018-12-23T22:43:29.519Z,6.33
2018-12-23T22:45:58.081Z,5.97
2018-12-23T22:48:43.897Z,6.17
2018-12-23T22:51:12.453Z,7.27
2018-12-23T22:53:41.089Z,7.07
2018-12-23T22:56:09.703Z,6.60
2018-12-23T22:58:38.328Z,7.80
2018-12-23T23:01:07.252Z,6.60
2018-12-23T23:03:35.833Z,7.17
2018-12-23T23:06:07.468Z,6.80
2018-12-23T23:08:36.032Z,6.83
2018-12-23T23:11:06.286Z,7.13
2018-12-23T23:13:34.933Z,7.00
2018-12-23T23:16:03.655Z,6.87
2018-12-23T23:18:38.159Z,6.50
2018-12-23T23:21:06.860Z,6.47
2018-12-23T23:23:35.480Z,5.90
2018-12-23T23:26:06.298Z,6.50
2018-12-23T23:28:35.024Z,6.77
2018-12-23T23:31:03.846Z,6.57
2018-12-23T23:33:32.454Z,6.53
2018-12-23T23:36:00.983Z,6.80
2018-12-23T23:38:29.595Z,5.33
2018-12-23T23:40:58.152Z,5.63
2018-12-23T23:43:26.772Z,5.43
2018-12-23T23:45:55.293Z,4.40
2018-12-23T23:48:25.587Z,5.20
2018-12-23T23:50:54.149Z,4.70
2018-12-23T23:53:22.677Z,5.50
2018-12-23T23:55:51.260Z,5.37
2018-12-23T23:58:19.819Z,5.30
